Terminal Aerodrome Forecast
Issued by NWS Twin Cities, MN

Home | Current Version | Previous Version | Text Only | Print | Product List | Glossary Off
Versions: 1 2 3 4 5 6 7 8 9 10 11 12 13 14 15 16 17 18 19 20 21 22 23 24

000
FTUS43 KMPX 020705 AAA
TAFSTC
TAF AMD
KSTC 020705Z 0207/0306 16003KT P6SM SCT120 BKN200
      TEMPO 0207/0209 5SM -SHRA BKN050 OVC100
     FM020900 15004KT 6SM BR SCT014 OVC025
     FM021400 16010KT P6SM BKN100
     FM021800 16010KT P6SM SCT050=

USA.gov is the U.S. government's official web portal to all federal, state and local government web resources and services.